createdAt,value
2018-01-07T00:00:24.469Z,7.83
2018-01-07T00:02:52.105Z,7.80
2018-01-07T00:05:19.723Z,7.77
2018-01-07T00:07:47.361Z,7.75
2018-01-07T00:10:14.975Z,7.74
2018-01-07T00:12:42.657Z,7.74
2018-01-07T00:15:10.270Z,7.76
2018-01-07T00:17:37.921Z,7.79
2018-01-07T00:20:05.518Z,7.79
2018-01-07T00:22:33.138Z,7.73
2018-01-07T00:25:00.819Z,7.71
2018-01-07T00:27:28.442Z,7.76
2018-01-07T00:29:56.083Z,7.76
2018-01-07T00:32:23.676Z,7.72
2018-01-07T00:34:51.299Z,7.70
2018-01-07T00:37:18.881Z,7.69
2018-01-07T00:39:46.526Z,7.70
2018-01-07T00:42:14.130Z,7.71
2018-01-07T00:44:41.743Z,7.65
2018-01-07T00:47:09.339Z,7.61
2018-01-07T00:49:36.989Z,7.60
2018-01-07T00:52:04.655Z,7.59
2018-01-07T00:54:32.425Z,7.59
2018-01-07T00:57:00.029Z,7.52
2018-01-07T00:59:27.654Z,7.55
2018-01-07T01:01:55.282Z,7.56
2018-01-07T01:04:22.978Z,7.50
2018-01-07T01:06:50.603Z,7.46
2018-01-07T01:09:18.265Z,7.48
2018-01-07T01:11:45.877Z,7.51
2018-01-07T01:14:13.507Z,7.51
2018-01-07T01:16:41.125Z,7.48
2018-01-07T01:19:08.737Z,7.42
2018-01-07T01:21:36.329Z,7.45
2018-01-07T01:24:03.955Z,7.40
2018-01-07T01:26:31.568Z,7.35
2018-01-07T01:28:59.214Z,7.32
2018-01-07T01:31:26.881Z,7.29
2018-01-07T01:33:54.524Z,7.30
2018-01-07T01:36:22.195Z,7.22
2018-01-07T01:38:49.936Z,7.18
2018-01-07T01:41:17.752Z,7.18
2018-01-07T01:43:45.462Z,7.19
2018-01-07T01:46:13.070Z,7.24
2018-01-07T01:48:40.726Z,7.20
2018-01-07T01:51:08.338Z,7.14
2018-01-07T01:53:35.986Z,7.04
2018-01-07T01:56:03.619Z,7.02
2018-01-07T01:58:31.303Z,7.00
2018-01-07T02:00:58.974Z,7.04
2018-01-07T02:03:26.630Z,6.98
2018-01-07T02:05:54.275Z,6.97
2018-01-07T02:08:21.974Z,6.90
2018-01-07T02:10:49.641Z,6.93
2018-01-07T02:13:17.330Z,6.86
2018-01-07T02:15:45.071Z,6.89
2018-01-07T02:18:12.759Z,6.90
2018-01-07T02:20:40.402Z,6.89
2018-01-07T02:23:07.998Z,6.88
2018-01-07T02:25:35.630Z,6.87
2018-01-07T02:28:03.262Z,6.87
2018-01-07T02:30:30.884Z,6.87
2018-01-07T02:32:58.474Z,6.72
2018-01-07T02:35:26.114Z,6.72
2018-01-07T02:37:53.714Z,6.74
2018-01-07T02:40:21.341Z,6.76
2018-01-07T02:42:48.930Z,6.78
2018-01-07T02:45:16.553Z,6.79
2018-01-07T02:47:44.179Z,6.76
2018-01-07T02:50:11.795Z,6.72
2018-01-07T02:52:39.400Z,6.74
2018-01-07T02:55:07.033Z,6.76
2018-01-07T02:57:34.619Z,6.80
2018-01-07T03:00:02.242Z,6.82
2018-01-07T03:02:29.835Z,6.83
2018-01-07T03:04:57.480Z,6.76
2018-01-07T03:07:25.154Z,6.74
2018-01-07T03:09:52.765Z,6.71
2018-01-07T03:12:20.365Z,6.77
2018-01-07T03:14:47.978Z,6.68
2018-01-07T03:17:15.562Z,6.69
2018-01-07T03:19:43.170Z,6.61
2018-01-07T03:22:10.762Z,6.63
2018-01-07T03:24:38.370Z,6.62
2018-01-07T03:27:05.958Z,6.61
2018-01-07T03:29:33.590Z,6.58
2018-01-07T03:32:01.167Z,6.56
2018-01-07T03:34:28.797Z,6.54
2018-01-07T03:36:56.391Z,6.58
2018-01-07T03:39:24.012Z,6.60
2018-01-07T03:41:51.627Z,6.64
2018-01-07T03:44:19.253Z,6.62
2018-01-07T03:46:46.827Z,6.63
2018-01-07T03:49:14.450Z,6.59
2018-01-07T03:51:42.025Z,6.57
2018-01-07T03:54:09.638Z,6.55
2018-01-07T03:56:37.316Z,6.56
2018-01-07T03:59:04.919Z,6.60
2018-01-07T04:01:32.494Z,6.59
2018-01-07T04:04:00.114Z,6.61
2018-01-07T04:06:28.457Z,6.62
2018-01-07T04:08:56.070Z,6.61
2018-01-07T04:11:23.686Z,6.67
2018-01-07T04:13:51.302Z,6.70
2018-01-07T04:16:18.890Z,6.70
2018-01-07T04:18:46.508Z,6.68
2018-01-07T04:21:14.143Z,6.66
2018-01-07T04:23:41.765Z,6.63
2018-01-07T04:26:09.410Z,6.62
2018-01-07T04:28:37.049Z,6.66
2018-01-07T04:31:04.642Z,6.65
2018-01-07T04:33:32.254Z,6.65
2018-01-07T04:35:59.841Z,6.60
2018-01-07T04:38:27.476Z,6.63
2018-01-07T04:40:55.053Z,6.65
2018-01-07T04:43:22.700Z,6.65
2018-01-07T04:45:50.277Z,6.67
2018-01-07T04:48:17.880Z,6.62
2018-01-07T04:50:45.482Z,6.65
2018-01-07T04:53:13.096Z,6.63
2018-01-07T04:55:40.746Z,6.55
2018-01-07T04:58:08.366Z,6.60
2018-01-07T05:00:35.946Z,6.60
2018-01-07T05:03:03.563Z,6.53
2018-01-07T05:05:31.138Z,6.51
2018-01-07T05:07:58.882Z,6.53
2018-01-07T05:10:26.465Z,6.52
2018-01-07T05:12:54.107Z,6.51
2018-01-07T05:15:21.710Z,6.47
2018-01-07T05:17:49.333Z,6.44
2018-01-07T05:20:16.905Z,6.42
2018-01-07T05:22:44.533Z,6.41
2018-01-07T05:25:12.106Z,6.33
2018-01-07T05:27:39.698Z,6.33
2018-01-07T05:30:07.328Z,6.30
2018-01-07T05:32:34.925Z,6.30
2018-01-07T05:35:02.533Z,6.30
2018-01-07T05:37:30.185Z,6.26
2018-01-07T05:39:57.798Z,6.24
2018-01-07T05:42:25.379Z,6.23
2018-01-07T05:44:52.994Z,6.22
2018-01-07T05:47:20.593Z,6.17
2018-01-07T05:49:48.206Z,6.09
2018-01-07T05:52:15.793Z,6.13
2018-01-07T05:54:43.430Z,6.22
2018-01-07T05:57:11.046Z,6.27
2018-01-07T05:59:38.663Z,6.20
2018-01-07T06:02:06.250Z,6.17
2018-01-07T06:04:33.866Z,6.21
2018-01-07T06:07:01.457Z,6.19
2018-01-07T06:09:29.073Z,6.24
2018-01-07T06:11:56.654Z,6.23
2018-01-07T06:14:24.265Z,6.24
2018-01-07T06:16:51.850Z,6.17
2018-01-07T06:19:19.529Z,6.16
2018-01-07T06:21:47.105Z,6.15
2018-01-07T06:24:14.742Z,6.17
2018-01-07T06:26:42.334Z,6.16
2018-01-07T06:29:09.971Z,6.11
2018-01-07T06:31:37.551Z,6.09
2018-01-07T06:34:05.185Z,6.04
2018-01-07T06:36:32.782Z,6.08
2018-01-07T06:39:00.397Z,6.04
2018-01-07T06:41:28.003Z,5.97
2018-01-07T06:43:55.634Z,5.98
2018-01-07T06:46:23.362Z,5.97
2018-01-07T06:48:50.991Z,5.97
2018-01-07T06:51:18.582Z,6.01
2018-01-07T06:53:46.238Z,6.06
2018-01-07T06:56:13.825Z,6.08
2018-01-07T06:58:41.448Z,6.12
2018-01-07T07:01:09.047Z,6.16
2018-01-07T07:03:36.662Z,6.13
2018-01-07T07:06:04.282Z,6.06
2018-01-07T07:08:31.866Z,6.07
2018-01-07T07:10:59.470Z,6.06
2018-01-07T07:13:27.053Z,6.06
2018-01-07T07:15:54.671Z,6.08
2018-01-07T07:18:22.265Z,6.02
2018-01-07T07:20:49.898Z,5.92
2018-01-07T07:23:17.497Z,5.93
2018-01-07T07:25:45.110Z,5.97
2018-01-07T07:28:12.770Z,5.97
2018-01-07T07:30:40.379Z,5.99
2018-01-07T07:33:07.998Z,6.05
2018-01-07T07:35:35.606Z,6.02
2018-01-07T07:38:03.223Z,5.99
2018-01-07T07:40:30.817Z,5.99
2018-01-07T07:42:58.458Z,6.01
2018-01-07T07:45:26.039Z,6.03
2018-01-07T07:47:53.644Z,6.05
2018-01-07T07:50:21.236Z,6.09
2018-01-07T07:52:48.851Z,6.04
2018-01-07T07:55:16.456Z,6.02
2018-01-07T07:57:44.070Z,6.02
2018-01-07T08:00:11.673Z,6.09
2018-01-07T08:02:39.325Z,6.12
2018-01-07T08:05:06.910Z,6.15
2018-01-07T08:07:34.558Z,6.16
2018-01-07T08:10:02.150Z,6.19
2018-01-07T08:12:29.771Z,6.16
2018-01-07T08:14:57.367Z,6.19
2018-01-07T08:17:25.080Z,6.17
2018-01-07T08:19:52.671Z,6.20
2018-01-07T08:22:20.288Z,6.21
2018-01-07T08:24:47.874Z,6.19
2018-01-07T08:27:15.462Z,6.22
2018-01-07T08:29:43.051Z,6.20
2018-01-07T08:32:10.702Z,6.19
2018-01-07T08:34:38.303Z,6.20
2018-01-07T08:37:05.939Z,6.21
2018-01-07T08:39:33.539Z,6.20
2018-01-07T08:42:01.163Z,6.24
2018-01-07T08:44:28.747Z,6.31
2018-01-07T08:46:56.411Z,6.30
2018-01-07T08:49:24.002Z,6.34
2018-01-07T08:51:51.694Z,6.32
2018-01-07T08:54:19.297Z,6.31
2018-01-07T08:56:46.926Z,6.30
2018-01-07T08:59:14.529Z,6.33
2018-01-07T09:01:42.150Z,6.29
2018-01-07T09:04:09.750Z,6.29
2018-01-07T09:06:37.374Z,6.37
2018-01-07T09:09:04.939Z,6.37
2018-01-07T09:11:32.554Z,6.40
2018-01-07T09:14:00.143Z,6.42
2018-01-07T09:16:28.416Z,6.48
2018-01-07T09:18:55.987Z,6.49
2018-01-07T09:21:23.609Z,6.53
2018-01-07T09:23:51.206Z,6.55
2018-01-07T09:26:18.826Z,6.59
2018-01-07T09:28:46.431Z,6.61
2018-01-07T09:31:14.062Z,6.70
2018-01-07T09:33:41.646Z,6.72
2018-01-07T09:36:09.269Z,6.69
2018-01-07T09:38:36.919Z,6.70
2018-01-07T09:41:04.546Z,6.74
2018-01-07T09:43:32.144Z,6.75
2018-01-07T09:45:59.758Z,6.79
2018-01-07T09:48:27.377Z,6.79
2018-01-07T09:50:55.018Z,6.83
2018-01-07T09:53:22.648Z,6.89
2018-01-07T09:55:50.304Z,6.89
2018-01-07T09:58:17.906Z,7.02
2018-01-07T10:00:45.526Z,7.10
2018-01-07T10:03:13.122Z,7.16
2018-01-07T10:05:40.786Z,7.15
2018-01-07T10:08:08.378Z,7.15
2018-01-07T10:10:36.010Z,7.14
2018-01-07T10:13:03.592Z,7.14
2018-01-07T10:15:31.210Z,7.14
2018-01-07T10:17:58.859Z,7.16
2018-01-07T10:20:26.470Z,7.30
2018-01-07T10:22:54.063Z,7.27
2018-01-07T10:25:21.730Z,7.19
2018-01-07T10:27:49.321Z,7.12
2018-01-07T10:30:16.942Z,7.15
2018-01-07T10:32:44.557Z,7.16
2018-01-07T10:35:12.199Z,7.19
2018-01-07T10:37:39.836Z,7.12
2018-01-07T10:40:07.447Z,7.06
2018-01-07T10:42:35.161Z,6.95
2018-01-07T10:45:02.778Z,6.97
2018-01-07T10:47:30.418Z,6.98
2018-01-07T10:49:58.059Z,6.89
2018-01-07T10:52:25.650Z,6.97
2018-01-07T10:54:53.285Z,7.03
2018-01-07T10:57:20.874Z,7.05
2018-01-07T10:59:48.519Z,7.08
2018-01-07T11:02:21.668Z,7.07
2018-01-07T11:04:49.269Z,6.99
2018-01-07T11:07:16.938Z,6.90
2018-01-07T11:09:44.614Z,6.88
2018-01-07T11:12:12.166Z,6.90
2018-01-07T11:14:39.779Z,6.91
2018-01-07T11:17:07.386Z,6.95
2018-01-07T11:19:34.990Z,6.96
2018-01-07T11:22:02.633Z,6.96
2018-01-07T11:24:30.248Z,6.93
2018-01-07T11:26:57.873Z,6.93
2018-01-07T11:29:25.473Z,6.97
2018-01-07T11:31:53.098Z,7.06
2018-01-07T11:34:20.698Z,7.02
2018-01-07T11:36:48.362Z,6.99
2018-01-07T11:39:15.958Z,7.03
2018-01-07T11:41:43.696Z,7.10
2018-01-07T11:44:11.287Z,7.14
2018-01-07T11:46:38.922Z,7.16
2018-01-07T11:49:06.526Z,7.11
2018-01-07T11:51:34.115Z,7.10
2018-01-07T11:54:01.760Z,7.14
2018-01-07T11:56:29.352Z,7.12
2018-01-07T11:58:56.970Z,7.18
2018-01-07T12:01:24.567Z,7.17
2018-01-07T12:03:52.217Z,7.14
2018-01-07T12:06:19.822Z,7.17
2018-01-07T12:08:47.462Z,7.20
2018-01-07T12:11:15.055Z,7.13
2018-01-07T12:13:42.648Z,7.12
2018-01-07T12:16:10.246Z,7.15
2018-01-07T12:18:37.874Z,7.17
2018-01-07T12:21:05.478Z,7.06
2018-01-07T12:23:33.146Z,7.08
2018-01-07T12:26:00.764Z,7.08
2018-01-07T12:28:28.398Z,7.18
2018-01-07T12:30:56.048Z,7.18
2018-01-07T12:33:23.857Z,7.15
2018-01-07T12:35:51.456Z,7.15
2018-01-07T12:38:19.086Z,7.10
2018-01-07T12:40:46.711Z,7.10
2018-01-07T12:43:14.301Z,7.14
2018-01-07T12:45:41.922Z,7.16
2018-01-07T12:48:09.519Z,7.15
2018-01-07T12:50:37.156Z,7.15
2018-01-07T12:53:04.750Z,7.15
2018-01-07T12:55:32.361Z,7.11
2018-01-07T12:57:59.962Z,7.12
2018-01-07T13:00:27.594Z,7.12
2018-01-07T13:02:55.274Z,7.16
2018-01-07T13:05:22.900Z,7.15
2018-01-07T13:07:50.478Z,7.19
2018-01-07T13:10:18.096Z,7.15
2018-01-07T13:12:45.678Z,7.18
2018-01-07T13:15:13.302Z,7.25
2018-01-07T13:17:40.914Z,7.19
2018-01-07T13:20:08.553Z,7.19
2018-01-07T13:22:36.130Z,7.20
2018-01-07T13:25:03.751Z,7.17
2018-01-07T13:27:31.343Z,7.17
2018-01-07T13:29:59.009Z,7.20
2018-01-07T13:32:26.607Z,7.26
2018-01-07T13:34:54.258Z,7.25
2018-01-07T13:37:21.854Z,7.28
2018-01-07T13:39:49.478Z,7.32
2018-01-07T13:42:17.083Z,7.37
2018-01-07T13:44:44.714Z,7.36
2018-01-07T13:47:12.302Z,7.34
2018-01-07T13:49:39.939Z,7.31
2018-01-07T13:52:07.584Z,7.24
2018-01-07T13:54:35.215Z,7.28
2018-01-07T13:57:02.810Z,7.31
2018-01-07T13:59:30.437Z,7.33
2018-01-07T14:01:58.065Z,7.31
2018-01-07T14:04:25.791Z,7.27
2018-01-07T14:06:53.386Z,7.26
2018-01-07T14:09:21.055Z,7.19
2018-01-07T14:11:48.669Z,7.18
2018-01-07T14:14:16.405Z,7.13
2018-01-07T14:16:44.019Z,7.08
2018-01-07T14:19:11.666Z,7.10
2018-01-07T14:21:39.271Z,7.07
2018-01-07T14:24:06.940Z,7.09
2018-01-07T14:26:34.551Z,7.05
2018-01-07T14:29:02.196Z,7.03
2018-01-07T14:31:29.940Z,7.02
2018-01-07T14:33:57.559Z,6.93
2018-01-07T14:36:25.242Z,6.96
2018-01-07T14:38:53.120Z,6.92
2018-01-07T14:41:20.764Z,6.83
2018-01-07T14:43:48.423Z,6.77
2018-01-07T14:46:16.056Z,6.80
2018-01-07T14:48:43.683Z,6.73
2018-01-07T14:51:11.527Z,6.77
2018-01-07T14:53:39.118Z,6.77
2018-01-07T14:56:06.753Z,6.73
2018-01-07T14:58:34.362Z,6.73
2018-01-07T15:01:01.959Z,6.71
2018-01-07T15:03:29.585Z,6.54
2018-01-07T15:05:57.189Z,6.52
2018-01-07T15:08:24.842Z,6.58
2018-01-07T15:10:52.472Z,6.65
2018-01-07T15:13:20.116Z,6.69
2018-01-07T15:15:47.694Z,6.60
2018-01-07T15:18:15.358Z,6.61
2018-01-07T15:20:42.972Z,6.64
2018-01-07T15:23:10.923Z,6.64
2018-01-07T15:25:38.526Z,6.61
2018-01-07T15:28:06.186Z,6.68
2018-01-07T15:30:33.814Z,6.45
2018-01-07T15:33:01.452Z,6.43
2018-01-07T15:35:29.046Z,6.46
2018-01-07T15:37:56.686Z,6.47
2018-01-07T15:40:24.278Z,6.44
2018-01-07T15:42:51.900Z,6.44
2018-01-07T15:45:19.575Z,6.46
2018-01-07T15:47:47.294Z,6.40
2018-01-07T15:50:14.947Z,6.44
2018-01-07T15:52:42.578Z,6.30
2018-01-07T15:55:10.178Z,6.36
2018-01-07T15:57:37.922Z,6.44
2018-01-07T16:00:05.537Z,6.38
2018-01-07T16:02:34.665Z,6.33
2018-01-07T16:05:02.262Z,6.30
2018-01-07T16:07:29.884Z,6.33
2018-01-07T16:09:57.470Z,6.27
2018-01-07T16:12:25.138Z,6.24
2018-01-07T16:14:52.718Z,6.24
2018-01-07T16:17:20.342Z,6.26
2018-01-07T16:19:47.944Z,6.34
2018-01-07T16:22:15.603Z,6.42
2018-01-07T16:24:43.195Z,6.48
2018-01-07T16:27:10.982Z,6.48
2018-01-07T16:29:38.758Z,6.42
2018-01-07T16:32:06.448Z,6.43
2018-01-07T16:34:34.050Z,6.44
2018-01-07T16:37:01.695Z,6.45
2018-01-07T16:39:29.313Z,6.46
2018-01-07T16:41:56.933Z,6.42
2018-01-07T16:44:24.539Z,6.41
2018-01-07T16:46:52.195Z,6.37
2018-01-07T16:49:19.799Z,6.33
2018-01-07T16:51:47.586Z,6.29
2018-01-07T16:54:15.198Z,6.28
2018-01-07T16:56:42.867Z,6.26
2018-01-07T16:59:10.476Z,6.29
2018-01-07T17:01:38.110Z,6.27
2018-01-07T17:04:05.707Z,6.26
2018-01-07T17:06:33.343Z,6.29
2018-01-07T17:09:00.960Z,6.30
2018-01-07T17:11:28.586Z,6.30
2018-01-07T17:13:56.188Z,6.33
2018-01-07T17:16:23.834Z,6.34
2018-01-07T17:18:51.428Z,6.34
2018-01-07T17:21:19.068Z,6.39
2018-01-07T17:23:46.667Z,6.46
2018-01-07T17:26:14.301Z,6.41
2018-01-07T17:28:41.899Z,6.31
2018-01-07T17:31:09.530Z,6.29
2018-01-07T17:33:37.119Z,6.25
2018-01-07T17:36:04.707Z,6.25
2018-01-07T17:38:32.388Z,6.32
2018-01-07T17:40:59.977Z,6.35
2018-01-07T17:43:27.623Z,6.31
2018-01-07T17:45:55.203Z,6.34
2018-01-07T17:48:22.804Z,6.36
2018-01-07T17:50:50.410Z,6.22
2018-01-07T17:53:18.031Z,6.23
2018-01-07T17:55:45.626Z,6.24
2018-01-07T17:58:13.267Z,6.28
2018-01-07T18:00:40.858Z,6.28
2018-01-07T18:03:08.574Z,6.30
2018-01-07T18:05:36.265Z,6.33
2018-01-07T18:08:03.929Z,6.30
2018-01-07T18:10:31.553Z,6.31
2018-01-07T18:12:59.234Z,6.33
2018-01-07T18:15:26.937Z,6.23
2018-01-07T18:17:54.563Z,6.26
2018-01-07T18:20:22.208Z,6.22
2018-01-07T18:22:49.856Z,6.21
2018-01-07T18:25:17.496Z,6.15
2018-01-07T18:27:45.113Z,6.08
2018-01-07T18:30:12.723Z,6.12
2018-01-07T18:32:40.380Z,6.11
2018-01-07T18:35:08.002Z,6.07
2018-01-07T18:37:35.613Z,6.08
2018-01-07T18:40:03.201Z,6.12
2018-01-07T18:42:30.962Z,6.13
2018-01-07T18:44:58.700Z,6.17
2018-01-07T18:47:26.326Z,6.19
2018-01-07T18:49:53.980Z,6.13
2018-01-07T18:52:21.662Z,6.08
2018-01-07T18:54:49.271Z,6.05
2018-01-07T18:57:16.916Z,6.00
2018-01-07T18:59:44.535Z,5.99
2018-01-07T19:02:12.371Z,5.98
2018-01-07T19:04:40.033Z,5.96
2018-01-07T19:07:07.645Z,6.02
2018-01-07T19:09:35.402Z,6.03
2018-01-07T19:12:03.071Z,6.03
2018-01-07T19:14:30.810Z,6.04
2018-01-07T19:16:58.431Z,5.99
2018-01-07T19:19:26.194Z,6.00
2018-01-07T19:21:53.814Z,6.02
2018-01-07T19:24:21.524Z,6.08
2018-01-07T19:26:49.132Z,6.03
2018-01-07T19:29:16.868Z,6.02
2018-01-07T19:31:44.517Z,6.06
2018-01-07T19:34:12.314Z,6.04
2018-01-07T19:36:39.929Z,6.03
2018-01-07T19:39:07.865Z,6.03
2018-01-07T19:41:35.643Z,6.05
2018-01-07T19:44:03.263Z,6.03
2018-01-07T19:46:31.259Z,6.01
2018-01-07T19:48:59.127Z,6.05
2018-01-07T19:51:26.810Z,6.08
2018-01-07T19:53:54.672Z,6.12
2018-01-07T19:56:22.344Z,6.11
2018-01-07T19:58:50.004Z,6.07
2018-01-07T20:01:17.635Z,6.07
2018-01-07T20:03:45.245Z,6.06
2018-01-07T20:06:12.890Z,6.08
2018-01-07T20:08:40.764Z,6.06
2018-01-07T20:11:08.435Z,6.09
2018-01-07T20:13:36.289Z,6.12
2018-01-07T20:16:03.963Z,6.10
2018-01-07T20:18:31.702Z,6.07
2018-01-07T20:20:59.336Z,6.04
2018-01-07T20:23:27.271Z,6.07
2018-01-07T20:25:54.941Z,6.08
2018-01-07T20:28:22.570Z,6.10
2018-01-07T20:30:50.221Z,6.10
2018-01-07T20:33:17.871Z,6.12
2018-01-07T20:35:45.463Z,6.13
2018-01-07T20:38:13.133Z,6.11
2018-01-07T20:40:40.733Z,6.07
2018-01-07T20:43:08.367Z,6.02
2018-01-07T20:45:36.000Z,6.02
2018-01-07T20:48:03.637Z,6.02
2018-01-07T20:50:31.283Z,5.99
2018-01-07T20:52:58.931Z,6.04
2018-01-07T20:55:26.585Z,6.03
2018-01-07T20:57:54.165Z,6.03
2018-01-07T21:00:21.857Z,6.04
2018-01-07T21:02:49.473Z,6.06
2018-01-07T21:05:17.113Z,6.05
2018-01-07T21:07:44.728Z,6.05
2018-01-07T21:10:12.398Z,6.07
2018-01-07T21:12:40.011Z,6.07
2018-01-07T21:15:07.712Z,6.03
2018-01-07T21:17:35.322Z,5.99
2018-01-07T21:20:03.002Z,6.05
2018-01-07T21:22:30.606Z,6.13
2018-01-07T21:24:58.224Z,6.14
2018-01-07T21:27:25.841Z,6.19
2018-01-07T21:29:53.459Z,6.19
2018-01-07T21:32:21.050Z,6.10
2018-01-07T21:34:48.674Z,6.03
2018-01-07T21:37:16.273Z,6.05
2018-01-07T21:39:43.906Z,6.01
2018-01-07T21:42:11.470Z,6.01
2018-01-07T21:44:39.098Z,6.04
2018-01-07T21:47:06.718Z,6.03
2018-01-07T21:49:34.338Z,6.01
2018-01-07T21:52:01.956Z,5.98
2018-01-07T21:54:29.683Z,5.99
2018-01-07T21:56:57.278Z,6.01
2018-01-07T21:59:24.919Z,6.05
2018-01-07T22:02:04.222Z,6.07
2018-01-07T22:04:43.485Z,6.06
2018-01-07T22:07:11.093Z,5.99
2018-01-07T22:09:38.743Z,5.94
2018-01-07T22:12:06.335Z,5.93
2018-01-07T22:14:33.951Z,5.93
2018-01-07T22:17:01.542Z,5.87
2018-01-07T22:19:29.175Z,5.90
2018-01-07T22:21:56.762Z,5.93
2018-01-07T22:24:24.451Z,5.93
2018-01-07T22:26:52.039Z,5.91
2018-01-07T22:29:19.693Z,5.94
2018-01-07T22:31:47.281Z,6.95
2018-01-07T22:34:14.921Z,7.59
2018-01-07T22:36:42.506Z,7.24
2018-01-07T22:39:10.117Z,6.99
2018-01-07T22:41:37.703Z,6.77
2018-01-07T22:44:05.334Z,6.56
2018-01-07T22:46:32.926Z,6.42
2018-01-07T22:49:00.542Z,6.31
2018-01-07T22:51:28.149Z,6.22
2018-01-07T22:53:55.766Z,6.16
2018-01-07T22:56:23.378Z,6.14
2018-01-07T22:58:50.996Z,6.11
2018-01-07T23:01:18.590Z,6.13
2018-01-07T23:03:46.238Z,6.17
2018-01-07T23:06:13.904Z,6.11
2018-01-07T23:08:41.549Z,6.09
2018-01-07T23:11:09.244Z,6.13
2018-01-07T23:13:36.916Z,6.12
2018-01-07T23:16:04.507Z,6.08
2018-01-07T23:18:32.152Z,6.06
2018-01-07T23:20:59.790Z,6.08
2018-01-07T23:23:27.491Z,6.07
2018-01-07T23:25:55.080Z,6.06
2018-01-07T23:28:22.702Z,6.00
2018-01-07T23:30:50.290Z,6.05
2018-01-07T23:33:17.933Z,6.07
2018-01-07T23:35:45.515Z,5.99
2018-01-07T23:38:13.157Z,5.94
2018-01-07T23:40:40.754Z,5.90
2018-01-07T23:43:08.460Z,5.89
2018-01-07T23:45:36.045Z,5.89
2018-01-07T23:48:03.687Z,5.83
2018-01-07T23:50:31.354Z,5.81
2018-01-07T23:52:58.966Z,5.78
2018-01-07T23:55:26.634Z,5.78
2018-01-07T23:57:54.246Z,5.76
